createdAt,value
2022-12-04T00:03:01.173Z,31.50
2022-12-04T00:06:29.122Z,29.50
2022-12-04T00:09:41.086Z,32.10
2022-12-04T00:12:54.149Z,33.67
2022-12-04T00:16:06.175Z,29.03
2022-12-04T00:19:36.190Z,30.47
2022-12-04T00:22:36.180Z,30.67
2022-12-04T00:25:48.259Z,33.23
2022-12-04T00:29:00.163Z,28.40
2022-12-04T00:32:15.291Z,31.25
2022-12-04T00:35:29.158Z,30.75
2022-12-04T00:38:45.243Z,30.90
2022-12-04T00:41:57.183Z,29.80
2022-12-04T00:45:09.219Z,25.33
2022-12-04T00:48:13.239Z,32.10
2022-12-04T00:51:38.385Z,31.97
2022-12-04T00:54:38.299Z,33.05
2022-12-04T00:57:50.252Z,32.20
2022-12-04T01:01:02.463Z,28.85
2022-12-04T01:04:14.320Z,29.45
2022-12-04T01:07:27.355Z,30.27
2022-12-04T01:10:39.357Z,31.95
2022-12-04T01:13:39.282Z,31.35
2022-12-04T01:17:04.425Z,31.53
2022-12-04T01:20:16.384Z,29.10
2022-12-04T01:23:42.436Z,30.37
2022-12-04T01:26:42.412Z,32.77
2022-12-04T01:29:54.761Z,27.73
2022-12-04T01:32:57.448Z,31.40
2022-12-04T01:36:21.388Z,33.17
2022-12-04T01:39:34.460Z,38.17
2022-12-04T01:42:58.467Z,34.00
2022-12-04T01:46:10.567Z,35.40
2022-12-04T01:49:34.476Z,29.93
2022-12-04T01:52:46.428Z,31.47
2022-12-04T01:56:12.446Z,34.77
2022-12-04T01:59:27.425Z,32.30
2022-12-04T02:02:51.541Z,34.80
2022-12-04T02:06:03.558Z,29.57
2022-12-04T02:09:03.502Z,37.50
2022-12-04T02:12:30.475Z,29.67
2022-12-04T02:15:42.543Z,35.50
2022-12-04T02:19:11.561Z,34.87
2022-12-04T02:22:23.587Z,34.60
2022-12-04T02:25:48.510Z,35.10
2022-12-04T02:29:02.553Z,33.47
2022-12-04T02:32:27.564Z,28.80
2022-12-04T02:35:39.626Z,27.87
2022-12-04T02:39:03.622Z,33.10
2022-12-04T02:42:16.609Z,32.95
2022-12-04T02:45:42.728Z,37.13
2022-12-04T02:48:57.645Z,32.07
2022-12-04T02:52:22.637Z,36.13
2022-12-04T02:55:34.590Z,36.53
2022-12-04T02:58:58.609Z,32.75
2022-12-04T03:02:11.771Z,36.73
2022-12-04T03:05:35.718Z,29.33
2022-12-04T03:08:47.719Z,31.87
2022-12-04T03:12:11.700Z,34.90
2022-12-04T03:15:23.672Z,38.20
2022-12-04T03:18:48.759Z,33.33
2022-12-04T03:22:00.773Z,29.53
2022-12-04T03:25:24.742Z,32.77
2022-12-04T03:28:36.780Z,31.35
2022-12-04T03:32:02.784Z,33.57
2022-12-04T03:35:16.851Z,30.57
2022-12-04T03:38:40.738Z,35.77
2022-12-04T03:41:53.740Z,35.97
2022-12-04T03:45:24.810Z,34.07
2022-12-04T03:48:37.843Z,29.80
2022-12-04T03:52:06.782Z,37.90
2022-12-04T03:55:18.788Z,36.47
2022-12-04T03:58:42.859Z,33.70
2022-12-04T04:01:54.825Z,37.77
2022-12-04T04:05:19.845Z,38.63
2022-12-04T04:08:42.827Z,31.33
2022-12-04T04:12:06.861Z,37.00
2022-12-04T04:15:25.851Z,33.60
2022-12-04T04:18:58.602Z,35.13
2022-12-04T04:22:16.315Z,32.03
2022-12-04T04:25:41.977Z,35.17
2022-12-04T04:28:54.920Z,34.17
2022-12-04T04:32:18.925Z,29.90
2022-12-04T04:35:30.907Z,33.57
2022-12-04T04:38:54.974Z,35.73
2022-12-04T04:42:08.956Z,34.57
2022-12-04T04:45:32.952Z,31.20
2022-12-04T04:48:44.929Z,35.53
2022-12-04T04:52:09.051Z,33.90
2022-12-04T04:55:21.034Z,34.40
2022-12-04T04:58:47.027Z,36.35
2022-12-04T05:02:00.063Z,31.60
2022-12-04T05:05:26.032Z,32.67
2022-12-04T05:08:26.018Z,31.80
2022-12-04T05:11:38.065Z,32.55
2022-12-04T05:14:55.059Z,32.25
2022-12-04T05:18:08.066Z,32.45
2022-12-04T05:21:11.068Z,34.90
2022-12-04T05:24:23.119Z,31.33
2022-12-04T05:27:23.083Z,33.33
2022-12-04T05:30:49.229Z,33.20
2022-12-04T05:33:49.192Z,33.77
2022-12-04T05:37:01.126Z,31.83
2022-12-04T05:40:01.197Z,31.23
2022-12-04T05:43:14.177Z,34.93
2022-12-04T05:46:28.216Z,33.17
2022-12-04T05:49:55.360Z,32.90
2022-12-04T05:52:55.171Z,32.80
2022-12-04T05:56:20.183Z,33.03
2022-12-04T05:59:20.183Z,33.00
2022-12-04T06:02:45.242Z,31.27
2022-12-04T06:06:10.186Z,35.60
2022-12-04T06:09:22.271Z,33.83
2022-12-04T06:12:34.260Z,33.70
2022-12-04T06:15:34.262Z,31.65
2022-12-04T06:19:00.305Z,32.75
2022-12-04T06:22:12.309Z,29.37
2022-12-04T06:25:27.314Z,31.47
2022-12-04T06:28:27.302Z,32.45
2022-12-04T06:31:51.384Z,31.67
2022-12-04T06:35:05.429Z,32.90
2022-12-04T06:38:17.344Z,31.60
2022-12-04T06:41:29.308Z,31.95
2022-12-04T06:44:41.431Z,30.17
2022-12-04T06:47:41.408Z,34.30
2022-12-04T06:51:07.418Z,32.60
2022-12-04T06:54:19.503Z,31.30
2022-12-04T06:57:31.367Z,31.20
2022-12-04T07:00:32.359Z,31.20
2022-12-04T07:03:50.785Z,28.23
2022-12-04T07:06:58.414Z,33.53
2022-12-04T07:10:10.411Z,30.23
2022-12-04T07:13:22.453Z,27.47
2022-12-04T07:16:46.546Z,28.27
2022-12-04T07:19:46.466Z,28.87
2022-12-04T07:23:12.441Z,28.95
2022-12-04T07:26:28.416Z,28.83
2022-12-04T07:29:40.489Z,28.77
2022-12-04T07:32:40.532Z,28.10
2022-12-04T07:35:52.527Z,31.33
2022-12-04T07:39:05.514Z,29.80
2022-12-04T07:42:23.850Z,30.03
2022-12-04T07:45:30.745Z,28.93
2022-12-04T07:48:54.640Z,34.17
2022-12-04T07:51:54.569Z,26.87
2022-12-04T07:55:23.293Z,27.50
2022-12-04T07:58:32.628Z,30.85
2022-12-04T08:01:56.704Z,30.90
2022-12-04T08:05:08.571Z,29.83
2022-12-04T08:08:08.654Z,31.17
2022-12-04T08:11:36.579Z,29.23
2022-12-04T08:14:36.672Z,30.33
2022-12-04T08:17:49.592Z,31.47
2022-12-04T08:20:49.714Z,32.67
2022-12-04T08:24:13.714Z,31.30
2022-12-04T08:27:27.746Z,29.47
2022-12-04T08:30:51.712Z,30.23
2022-12-04T08:34:03.661Z,30.93
2022-12-04T08:37:27.691Z,29.27
2022-12-04T08:40:28.771Z,26.15
2022-12-04T08:43:55.649Z,31.85
2022-12-04T08:46:55.761Z,30.17
2022-12-04T08:50:09.687Z,25.93
2022-12-04T08:53:21.736Z,28.87
2022-12-04T08:56:21.773Z,29.13
2022-12-04T08:59:48.740Z,30.60
2022-12-04T09:02:48.792Z,29.47
2022-12-04T09:06:12.834Z,30.87
2022-12-04T09:09:12.868Z,33.30
2022-12-04T09:12:24.916Z,30.87
2022-12-04T09:15:38.863Z,32.65
2022-12-04T09:19:02.856Z,33.40
2022-12-04T09:22:06.801Z,28.30
2022-12-04T09:25:19.814Z,33.77
2022-12-04T09:28:19.873Z,31.73
2022-12-04T09:31:44.869Z,32.07
2022-12-04T09:34:49.587Z,31.35
2022-12-04T09:37:56.834Z,33.47
2022-12-04T09:41:09.814Z,33.40
2022-12-04T09:44:37.954Z,30.40
2022-12-04T09:47:51.959Z,33.70
2022-12-04T09:51:15.883Z,29.27
2022-12-04T09:54:27.968Z,33.55
2022-12-04T09:57:58.434Z,35.47
2022-12-04T10:01:17.907Z,31.33
2022-12-04T10:04:43.949Z,27.93
2022-12-04T10:07:57.099Z,27.37
2022-12-04T10:11:27.705Z,34.27
2022-12-04T10:14:41.992Z,29.83
2022-12-04T10:18:10.981Z,29.35
2022-12-04T10:21:26.969Z,28.57
2022-12-04T10:24:53.071Z,26.35
2022-12-04T10:28:05.052Z,29.73
2022-12-04T10:31:32.119Z,24.15
2022-12-04T10:34:45.806Z,30.53
2022-12-04T10:38:10.092Z,28.50
2022-12-04T10:41:23.072Z,27.83
2022-12-04T10:44:35.139Z,25.97
2022-12-04T10:47:47.137Z,27.83
2022-12-04T10:51:11.089Z,25.80
2022-12-04T10:54:25.128Z,30.73
2022-12-04T10:57:49.185Z,27.60
2022-12-04T11:00:49.184Z,29.20
2022-12-04T11:04:13.217Z,22.55
2022-12-04T11:07:26.180Z,23.55
2022-12-04T11:10:53.161Z,26.60
2022-12-04T11:14:05.152Z,23.25
2022-12-04T11:17:29.180Z,24.50
2022-12-04T11:20:46.984Z,22.93
2022-12-04T11:24:08.218Z,25.77
2022-12-04T11:27:24.243Z,22.87
2022-12-04T11:30:49.280Z,21.05
2022-12-04T11:34:05.254Z,21.85
2022-12-04T11:37:29.294Z,22.73
2022-12-04T11:40:41.271Z,21.43
2022-12-04T11:44:07.255Z,18.05
2022-12-04T11:47:17.200Z,17.23
2022-12-04T11:50:41.419Z,17.63
2022-12-04T11:53:54.304Z,17.90
2022-12-04T11:57:20.302Z,21.63
2022-12-04T12:00:37.351Z,17.55
2022-12-04T12:04:01.348Z,20.07
2022-12-04T12:07:16.353Z,17.10
2022-12-04T12:10:44.597Z,16.65
2022-12-04T12:13:53.358Z,19.75
2022-12-04T12:17:21.348Z,18.10
2022-12-04T12:20:35.358Z,15.70
2022-12-04T12:24:06.356Z,19.80
2022-12-04T12:27:19.422Z,19.17
2022-12-04T12:30:43.411Z,18.90
2022-12-04T12:33:57.453Z,19.05
2022-12-04T12:37:21.513Z,19.63
2022-12-04T12:40:36.414Z,23.67
2022-12-04T12:44:01.467Z,18.93
2022-12-04T12:47:16.517Z,18.37
2022-12-04T12:50:42.445Z,21.83
2022-12-04T12:53:54.499Z,20.67
2022-12-04T12:57:18.470Z,21.20
2022-12-04T13:00:30.488Z,19.77
2022-12-04T13:03:55.492Z,19.47
2022-12-04T13:07:09.477Z,20.67
2022-12-04T13:10:37.504Z,19.33
2022-12-04T13:13:49.595Z,18.60
2022-12-04T13:17:14.529Z,20.90
2022-12-04T13:20:26.589Z,20.00
2022-12-04T13:23:58.586Z,19.47
2022-12-04T13:27:11.615Z,19.37
2022-12-04T13:30:28.567Z,20.15
2022-12-04T13:33:49.637Z,19.60
2022-12-04T13:37:17.675Z,24.43
2022-12-04T13:40:41.596Z,21.20
2022-12-04T13:44:10.615Z,20.83
2022-12-04T13:47:22.624Z,19.95
2022-12-04T13:50:50.630Z,20.83
2022-12-04T13:54:02.671Z,22.60
2022-12-04T13:57:45.726Z,22.75
2022-12-04T14:00:57.751Z,22.03
2022-12-04T14:04:09.670Z,23.60
2022-12-04T14:07:21.684Z,17.65
2022-12-04T14:10:49.741Z,19.30
2022-12-04T14:14:08.355Z,22.47
2022-12-04T14:17:39.704Z,20.97
2022-12-04T14:20:51.787Z,17.50
2022-12-04T14:24:15.799Z,22.10
2022-12-04T14:27:28.783Z,25.33
2022-12-04T14:30:54.834Z,22.10
2022-12-04T14:34:07.734Z,24.40
2022-12-04T14:37:31.790Z,22.53
2022-12-04T14:40:47.790Z,23.97
2022-12-04T14:44:11.870Z,25.80
2022-12-04T14:47:25.779Z,25.00
2022-12-04T14:50:51.828Z,19.47
2022-12-04T14:54:04.870Z,24.55
2022-12-04T14:57:31.892Z,23.10
2022-12-04T15:00:44.816Z,25.40
2022-12-04T15:04:10.957Z,25.27
2022-12-04T15:07:22.882Z,23.45
2022-12-04T15:10:52.720Z,26.80
2022-12-04T15:14:04.925Z,23.73
2022-12-04T15:17:28.904Z,22.40
2022-12-04T15:20:42.904Z,23.80
2022-12-04T15:24:09.958Z,23.93
2022-12-04T15:27:21.891Z,23.10
2022-12-04T15:30:46.109Z,23.80
2022-12-04T15:33:57.980Z,24.23
2022-12-04T15:37:24.013Z,22.20
2022-12-04T15:40:37.030Z,25.50
2022-12-04T15:44:04.042Z,26.43
2022-12-04T15:47:16.101Z,31.43
2022-12-04T15:50:42.035Z,24.83
2022-12-04T15:53:56.040Z,24.00
2022-12-04T15:57:24.044Z,25.47
2022-12-04T16:00:47.035Z,24.20
2022-12-04T16:04:11.071Z,24.10
2022-12-04T16:07:11.028Z,23.40
2022-12-04T16:10:46.088Z,26.05
2022-12-04T16:13:58.106Z,21.85
2022-12-04T16:17:22.054Z,25.40
2022-12-04T16:20:35.144Z,20.63
2022-12-04T16:23:47.088Z,21.07
2022-12-04T16:27:01.173Z,24.17
2022-12-04T16:30:14.115Z,23.07
2022-12-04T16:33:14.108Z,19.85
2022-12-04T16:36:27.197Z,23.40
2022-12-04T16:39:41.489Z,18.37
2022-12-04T16:43:04.222Z,22.83
2022-12-04T16:46:16.242Z,20.07
2022-12-04T16:49:28.199Z,23.20
2022-12-04T16:52:40.269Z,19.97
2022-12-04T16:55:54.213Z,25.07
2022-12-04T16:59:11.714Z,20.40
2022-12-04T17:02:31.214Z,20.93
2022-12-04T17:05:43.248Z,22.80
2022-12-04T17:08:55.301Z,24.10
2022-12-04T17:12:07.276Z,24.73
2022-12-04T17:15:33.307Z,27.67
2022-12-04T17:18:33.333Z,20.60
2022-12-04T17:21:45.291Z,22.10
2022-12-04T17:24:50.255Z,26.63
2022-12-04T17:27:58.377Z,26.50
2022-12-04T17:31:12.331Z,24.60
2022-12-04T17:34:36.280Z,23.40
2022-12-04T17:37:36.362Z,22.65
2022-12-04T17:40:48.320Z,23.23
2022-12-04T17:44:00.349Z,22.90
2022-12-04T17:47:28.410Z,22.70
2022-12-04T17:50:40.377Z,23.80
2022-12-04T17:54:05.422Z,20.97
2022-12-04T17:57:05.409Z,22.70
2022-12-04T18:00:30.425Z,19.37
2022-12-04T18:03:56.441Z,22.23
2022-12-04T18:07:08.481Z,21.97
2022-12-04T18:10:20.457Z,24.15
2022-12-04T18:13:20.480Z,23.40
2022-12-04T18:16:32.602Z,20.00
2022-12-04T18:20:02.649Z,20.70
2022-12-04T18:23:21.502Z,22.25
2022-12-04T18:26:21.492Z,23.77
2022-12-04T18:29:46.614Z,23.00
2022-12-04T18:32:46.545Z,25.55
2022-12-04T18:36:18.524Z,22.70
2022-12-04T18:39:30.607Z,24.73
2022-12-04T18:42:45.511Z,25.37
2022-12-04T18:45:45.628Z,19.30
2022-12-04T18:49:09.550Z,27.53
2022-12-04T18:52:23.606Z,26.35
2022-12-04T18:55:38.692Z,23.30
2022-12-04T18:58:38.588Z,22.33
2022-12-04T19:01:50.663Z,23.43
2022-12-04T19:04:50.607Z,22.03
2022-12-04T19:08:16.612Z,22.20
2022-12-04T19:11:40.645Z,22.20
2022-12-04T19:14:52.648Z,21.00
2022-12-04T19:17:52.721Z,21.80
2022-12-04T19:21:07.685Z,24.63
2022-12-04T19:24:21.717Z,21.33
2022-12-04T19:27:33.707Z,23.33
2022-12-04T19:30:33.717Z,23.20
2022-12-04T19:33:45.686Z,20.95
2022-12-04T19:36:57.695Z,20.75
2022-12-04T19:40:23.743Z,24.10
2022-12-04T19:43:26.772Z,21.63
2022-12-04T19:46:50.792Z,20.43
2022-12-04T19:49:50.793Z,22.13
2022-12-04T19:53:02.755Z,23.60
2022-12-04T19:56:16.827Z,21.43
2022-12-04T19:59:34.627Z,27.43
2022-12-04T20:02:28.871Z,21.60
2022-12-04T20:05:40.804Z,21.00
2022-12-04T20:08:41.864Z,22.17
2022-12-04T20:12:06.810Z,18.67
2022-12-04T20:15:06.866Z,19.70
2022-12-04T20:18:18.866Z,19.50
2022-12-04T20:21:30.852Z,24.07
2022-12-04T20:24:43.808Z,22.83
2022-12-04T20:27:56.883Z,23.40
2022-12-04T20:31:08.933Z,23.37
2022-12-04T20:34:20.855Z,20.75
2022-12-04T20:37:32.937Z,20.83
2022-12-04T20:40:32.987Z,22.77
2022-12-04T20:43:58.941Z,21.77
2022-12-04T20:47:02.911Z,19.87
2022-12-04T20:50:26.990Z,24.07
2022-12-04T20:53:26.945Z,20.25
2022-12-04T20:56:53.956Z,24.30
2022-12-04T21:00:07.983Z,21.83
2022-12-04T21:03:19.949Z,22.43
2022-12-04T21:06:35.024Z,25.17
2022-12-04T21:09:45.970Z,24.73
2022-12-04T21:13:03.726Z,20.70
2022-12-04T21:16:30.045Z,22.20
2022-12-04T21:19:42.000Z,22.30
2022-12-04T21:23:06.011Z,21.53
2022-12-04T21:26:20.002Z,23.17
2022-12-04T21:29:32.027Z,23.60
2022-12-04T21:32:45.081Z,24.95
2022-12-04T21:36:01.114Z,24.40
2022-12-04T21:39:13.156Z,21.95
2022-12-04T21:42:43.152Z,23.13
2022-12-04T21:45:43.151Z,25.37
2022-12-04T21:49:09.099Z,17.23
2022-12-04T21:52:09.072Z,20.50
2022-12-04T21:55:34.118Z,26.47
2022-12-04T21:58:49.212Z,24.25
2022-12-04T22:02:14.183Z,24.40
2022-12-04T22:05:43.269Z,24.23
2022-12-04T22:08:43.197Z,22.57
2022-12-04T22:12:26.248Z,23.95
2022-12-04T22:15:07.214Z,20.70
2022-12-04T22:18:34.164Z,29.07
2022-12-04T22:21:47.262Z,23.37
2022-12-04T22:25:12.229Z,21.80
2022-12-04T22:28:16.374Z,21.23
2022-12-04T22:31:41.283Z,23.60
2022-12-04T22:34:54.288Z,18.77
2022-12-04T22:38:19.308Z,25.50
2022-12-04T22:41:31.411Z,19.90
2022-12-04T22:44:55.313Z,24.97
2022-12-04T22:47:55.343Z,24.20
2022-12-04T22:51:22.283Z,21.50
2022-12-04T22:54:36.304Z,19.30
2022-12-04T22:57:51.324Z,20.55
2022-12-04T23:01:04.389Z,23.70
2022-12-04T23:04:28.461Z,21.50
2022-12-04T23:07:28.451Z,18.73
2022-12-04T23:10:55.381Z,20.53
2022-12-04T23:14:07.344Z,20.27
2022-12-04T23:17:19.336Z,19.50
2022-12-04T23:20:07.418Z,22.17
2022-12-04T23:23:19.415Z,18.70
2022-12-04T23:26:32.459Z,22.77
2022-12-04T23:29:54.443Z,19.77
2022-12-04T23:32:47.481Z,22.10
2022-12-04T23:36:16.476Z,21.63
2022-12-04T23:39:19.529Z,19.45
2022-12-04T23:42:44.474Z,20.37
2022-12-04T23:45:44.505Z,19.53
2022-12-04T23:49:08.519Z,18.53
2022-12-04T23:52:08.470Z,19.70
2022-12-04T23:55:23.499Z,16.95
2022-12-04T23:58:37.513Z,17.60
